Time;durP1;ratioP1;P1;durP2;ratioP2;P2;SDS_P1;SDS_P2;PMS_P1;PMS_P2;Temp;Humidity;BMP_temperature;BMP_pressure;BME280_temperature;BME280_humidity;BME280_pressure;Samples;Min_cycle;Max_cycle;Signal;HPM_P1;HPM_P2
2021/03/03 00:01:53;;;;;;;47.70;26.75;;;4.00;99.90;;;;;;5103217;28;20040;-67
2021/03/03 00:04:18;;;;;;;53.33;30.25;;;4.00;99.90;;;;;;5104499;28;20051;-67
2021/03/03 00:06:44;;;;;;;55.95;32.05;;;4.00;99.90;;;;;;5110615;28;20039;-68
2021/03/03 00:09:10;;;;;;;51.88;28.40;;;4.00;99.90;;;;;;5109797;28;20382;-67
2021/03/03 00:11:36;;;;;;;52.38;29.20;;;4.00;99.90;;;;;;5115536;28;20372;-67
2021/03/03 00:14:02;;;;;;;50.25;28.55;;;4.00;99.90;;;;;;5114901;28;20062;-67
2021/03/03 00:16:28;;;;;;;49.85;28.13;;;4.00;99.90;;;;;;5120268;28;20042;-67
2021/03/03 00:18:53;;;;;;;49.10;29.27;;;3.90;99.90;;;;;;5107810;28;20043;-67
2021/03/03 00:21:19;;;;;;;51.92;29.90;;;4.00;99.90;;;;;;5105336;28;20048;-68
2021/03/03 00:23:45;;;;;;;53.28;30.08;;;4.00;99.90;;;;;;5103553;28;20093;-67
2021/03/03 00:26:11;;;;;;;52.63;29.23;;;3.90;99.90;;;;;;5112916;28;20048;-67
2021/03/03 00:28:36;;;;;;;54.10;28.73;;;3.90;99.90;;;;;;5109246;28;20044;-67
2021/03/03 00:31:02;;;;;;;59.10;32.70;;;3.80;99.90;;;;;;5112882;28;20036;-67
2021/03/03 00:33:28;;;;;;;65.57;33.80;;;4.00;99.90;;;;;;5117948;28;20614;-68
2021/03/03 00:35:55;;;;;;;65.22;32.58;;;3.80;99.90;;;;;;5120195;28;20070;-67
2021/03/03 00:38:21;;;;;;;59.83;33.65;;;3.70;99.90;;;;;;5112636;28;20040;-67
2021/03/03 00:40:46;;;;;;;67.78;33.13;;;3.70;99.90;;;;;;5119588;28;20043;-68
2021/03/03 00:43:13;;;;;;;58.92;30.60;;;3.70;99.90;;;;;;5117376;28;20082;-68
2021/03/03 00:45:38;;;;;;;63.83;32.45;;;3.80;99.90;;;;;;5103240;28;20044;-68
2021/03/03 00:48:05;;;;;;;60.30;32.75;;;3.70;99.90;;;;;;5108817;28;20538;-67
2021/03/03 00:50:31;;;;;;;62.47;32.20;;;3.60;99.90;;;;;;5122889;28;20044;-68
2021/03/03 00:52:56;;;;;;;65.65;34.08;;;3.60;99.90;;;;;;5102795;28;20039;-67
2021/03/03 00:55:22;;;;;;;66.18;33.05;;;3.60;99.90;;;;;;5103225;28;20055;-67
2021/03/03 00:57:48;;;;;;;66.45;34.42;;;3.60;99.90;;;;;;5102895;28;20044;-67
2021/03/03 01:00:14;;;;;;;65.07;32.85;;;3.60;99.90;;;;;;5113108;28;20039;-67
2021/03/03 01:02:40;;;;;;;67.43;34.20;;;3.50;99.90;;;;;;5117389;28;20044;-67
2021/03/03 01:05:06;;;;;;;71.70;34.53;;;3.50;99.90;;;;;;5121352;28;20062;-67
2021/03/03 01:07:32;;;;;;;74.57;37.45;;;3.50;99.90;;;;;;5104802;28;20066;-67
2021/03/03 01:09:58;;;;;;;74.47;37.13;;;3.60;99.90;;;;;;5111439;28;20069;-67
2021/03/03 01:12:23;;;;;;;71.88;35.97;;;3.70;99.90;;;;;;5116922;28;20145;-68
2021/03/03 01:14:49;;;;;;;71.40;35.55;;;3.60;99.90;;;;;;5111390;28;20040;-67
2021/03/03 01:17:15;;;;;;;68.13;34.60;;;3.60;99.90;;;;;;5117250;28;20067;-68
2021/03/03 01:19:41;;;;;;;64.28;33.65;;;3.60;99.90;;;;;;5109802;28;20047;-67
2021/03/03 01:22:06;;;;;;;69.32;36.72;;;3.60;99.90;;;;;;5106460;28;20047;-67
2021/03/03 01:24:32;;;;;;;61.40;32.72;;;3.70;99.90;;;;;;5114840;28;20051;-67
2021/03/03 01:26:58;;;;;;;67.55;33.42;;;3.60;99.90;;;;;;5113154;28;20075;-67
2021/03/03 01:29:24;;;;;;;73.53;35.75;;;3.60;99.90;;;;;;5106389;28;20048;-67
2021/03/03 01:31:50;;;;;;;80.68;35.92;;;3.50;99.90;;;;;;5114229;28;20043;-67
2021/03/03 01:34:15;;;;;;;72.18;35.72;;;3.40;99.90;;;;;;5125289;28;20092;-67
2021/03/03 01:36:42;;;;;;;88.70;40.55;;;3.50;99.90;;;;;;5122511;28;20044;-68
2021/03/03 01:39:07;;;;;;;77.22;37.30;;;3.60;99.90;;;;;;5119721;28;20064;-67
2021/03/03 01:41:33;;;;;;;76.97;36.55;;;3.50;99.90;;;;;;5118439;28;20059;-67
2021/03/03 01:43:59;;;;;;;75.75;35.47;;;3.50;99.90;;;;;;5094574;28;20063;-67
2021/03/03 01:46:25;;;;;;;86.22;39.03;;;3.50;99.90;;;;;;5110172;28;20119;-67
2021/03/03 01:48:50;;;;;;;78.40;37.42;;;3.40;99.90;;;;;;5114607;28;20078;-67
2021/03/03 01:51:17;;;;;;;82.43;39.17;;;3.40;99.90;;;;;;5106201;28;20051;-67
2021/03/03 01:53:43;;;;;;;80.00;39.17;;;3.40;99.90;;;;;;5106267;28;20067;-65
2021/03/03 01:56:11;;;;;;;76.80;38.10;;;3.40;99.90;;;;;;5120154;28;20054;-68
2021/03/03 01:58:36;;;;;;;83.55;39.25;;;3.40;99.90;;;;;;5099910;28;20104;-67
2021/03/03 02:01:03;;;;;;;76.82;38.65;;;3.40;99.90;;;;;;5124770;28;20123;-67
2021/03/03 02:03:29;;;;;;;82.50;37.20;;;3.40;99.90;;;;;;5117705;28;20135;-67
2021/03/03 02:06:01;;;;;;;82.68;37.80;;;3.30;99.90;;;;;;5105946;28;20074;-67
2021/03/03 02:08:37;;;;;;;88.57;40.15;;;3.30;99.90;;;;;;5123254;28;20081;-67
2021/03/03 02:11:13;;;;;;;89.07;40.05;;;3.40;99.90;;;;;;5119782;28;20210;-67
2021/03/03 02:13:49;;;;;;;90.57;42.63;;;3.40;99.90;;;;;;5106204;28;20491;-68
2021/03/03 02:16:16;;;;;;;92.03;42.22;;;3.40;99.90;;;;;;5105437;28;20052;-67
2021/03/03 02:18:44;;;;;;;75.93;34.72;;;3.30;99.90;;;;;;5110749;28;20064;-66
2021/03/03 02:21:25;;;;;;;92.05;41.20;;;3.20;99.90;;;;;;5107262;28;20048;-67
2021/03/03 02:23:58;;;;;;;93.22;38.22;;;3.30;99.90;;;;;;5110450;28;20047;-67
2021/03/03 02:26:33;;;;;;;88.10;40.28;;;3.30;99.90;;;;;;5124579;28;20095;-67
2021/03/03 02:29:10;;;;;;;95.95;40.50;;;3.20;99.90;;;;;;5100841;28;20047;-67
2021/03/03 02:31:38;;;;;;;86.40;39.17;;;3.30;99.90;;;;;;5104915;28;20071;-66
2021/03/03 02:34:06;;;;;;;96.53;42.40;;;3.10;99.90;;;;;;5106019;28;20036;-66
2021/03/03 02:36:33;;;;;;;92.78;40.22;;;3.20;99.90;;;;;;5105194;28;20055;-66
2021/03/03 02:39:01;;;;;;;104.63;44.40;;;3.10;99.90;;;;;;5107780;28;20059;-66
2021/03/03 02:41:30;;;;;;;98.32;41.78;;;3.00;99.90;;;;;;5114877;28;20415;-67
2021/03/03 02:43:58;;;;;;;100.95;43.85;;;3.00;99.90;;;;;;5104909;28;20047;-67
2021/03/03 02:46:25;;;;;;;108.60;45.00;;;3.00;99.90;;;;;;5104764;28;20072;-68
2021/03/03 02:48:51;;;;;;;113.60;45.20;;;3.00;99.90;;;;;;5119857;28;20040;-67
2021/03/03 02:51:17;;;;;;;118.88;46.53;;;3.00;99.90;;;;;;5110707;28;20052;-67
2021/03/03 02:53:43;;;;;;;110.78;46.88;;;2.90;99.90;;;;;;5111191;28;20043;-67
2021/03/03 02:56:10;;;;;;;122.40;50.28;;;2.90;99.90;;;;;;5109826;28;20552;-67
2021/03/03 02:58:37;;;;;;;122.32;51.47;;;2.90;99.90;;;;;;5105012;28;20104;-67
2021/03/03 03:01:06;;;;;;;132.00;51.22;;;2.90;99.90;;;;;;5107300;28;20048;-66
2021/03/03 03:03:41;;;;;;;128.88;51.53;;;2.90;99.90;;;;;;5117460;28;20043;-67
2021/03/03 03:06:13;;;;;;;128.68;55.08;;;2.90;99.90;;;;;;5115401;28;20054;-66
2021/03/03 03:08:40;;;;;;;141.27;56.22;;;3.00;99.90;;;;;;5114692;28;20060;-67
2021/03/03 03:11:09;;;;;;;132.10;52.20;;;3.00;99.90;;;;;;5109535;28;20097;-67
2021/03/03 03:13:36;;;;;;;118.72;50.67;;;3.00;99.90;;;;;;5112364;28;20126;-67
2021/03/03 03:16:03;;;;;;;114.50;51.53;;;3.00;99.90;;;;;;5115550;28;20085;-67
2021/03/03 03:18:33;;;;;;;;;;;3.00;99.90;;;;;;5110560;28;20047;-67
2021/03/03 03:21:01;;;;;;;115.30;49.08;;;2.90;99.90;;;;;;5116378;28;19920;-67
2021/03/03 03:23:27;;;;;;;128.52;49.45;;;2.80;99.90;;;;;;5106159;28;20088;-66
2021/03/03 03:25:57;;;;;;;122.43;50.42;;;2.80;99.90;;;;;;5110624;28;20487;-67
2021/03/03 03:28:23;;;;;;;133.43;52.83;;;2.70;99.90;;;;;;5108721;28;20122;-67
2021/03/03 03:30:50;;;;;;;136.05;52.53;;;2.60;99.90;;;;;;5112570;28;20053;-66
2021/03/03 03:33:18;;;;;;;154.23;55.70;;;2.70;99.90;;;;;;5108950;28;20043;-66
2021/03/03 03:35:45;;;;;;;139.30;55.00;;;2.70;99.90;;;;;;5107227;28;20040;-66
2021/03/03 03:38:11;;;;;;;123.28;55.17;;;2.60;99.90;;;;;;5121020;28;20069;-66
2021/03/03 03:40:37;;;;;;;117.75;52.95;;;2.70;99.90;;;;;;5108045;28;20128;-66
2021/03/03 03:43:07;;;;;;;132.18;54.88;;;2.70;99.90;;;;;;5103677;28;20491;-66
2021/03/03 03:45:35;;;;;;;125.40;53.30;;;3.00;99.90;;;;;;5117666;28;20070;-67
2021/03/03 03:48:01;;;;;;;132.63;51.35;;;2.90;99.90;;;;;;5103352;28;20103;-67
2021/03/03 03:50:28;;;;;;;115.90;52.03;;;2.80;99.90;;;;;;5104409;28;20510;-68
2021/03/03 03:52:55;;;;;;;114.50;50.03;;;2.90;99.90;;;;;;5104152;28;20050;-67
2021/03/03 03:55:36;;;;;;;100.43;46.53;;;2.90;99.90;;;;;;5110726;28;20072;-67
2021/03/03 03:58:03;;;;;;;101.50;44.58;;;3.00;99.90;;;;;;5109448;28;20521;-66
2021/03/03 04:00:30;;;;;;;91.63;41.95;;;3.00;99.90;;;;;;5110913;28;20044;-67
2021/03/03 04:02:56;;;;;;;107.88;46.92;;;2.90;99.90;;;;;;5121807;28;20444;-67
2021/03/03 04:05:23;;;;;;;109.88;46.50;;;2.80;99.90;;;;;;5123454;28;20047;-67
2021/03/03 04:07:49;;;;;;;103.78;43.90;;;2.70;99.90;;;;;;5088334;28;20127;-67
2021/03/03 04:10:21;;;;;;;107.88;45.05;;;2.60;99.90;;;;;;5112012;28;20043;-67
2021/03/03 04:12:47;;;;;;;112.68;48.60;;;2.50;99.90;;;;;;5106831;28;20044;-66
2021/03/03 04:15:13;;;;;;;116.97;47.10;;;2.50;99.90;;;;;;5110954;28;20051;-67
2021/03/03 04:17:40;;;;;;;113.55;47.75;;;2.60;99.90;;;;;;5108886;28;20067;-66
2021/03/03 04:20:08;;;;;;;113.13;47.78;;;2.50;99.90;;;;;;5109220;28;20827;-67
2021/03/03 04:22:34;;;;;;;108.43;47.03;;;2.40;99.90;;;;;;5114993;28;20051;-67
2021/03/03 04:25:01;;;;;;;115.93;47.47;;;2.30;99.90;;;;;;5122698;28;20070;-67
2021/03/03 04:27:27;;;;;;;125.20;50.10;;;2.20;99.90;;;;;;5122141;28;20051;-67
2021/03/03 04:29:53;;;;;;;135.50;53.22;;;2.20;99.90;;;;;;5121114;28;20118;-67
2021/03/03 04:32:19;;;;;;;108.47;50.90;;;2.10;99.90;;;;;;5112140;28;20039;-68
2021/03/03 04:34:45;;;;;;;124.07;55.25;;;2.30;99.90;;;;;;5114810;28;20040;-67
2021/03/03 04:37:11;;;;;;;122.97;50.10;;;2.20;99.90;;;;;;5137053;28;20039;-67
2021/03/03 04:39:36;;;;;;;125.90;53.80;;;2.30;99.90;;;;;;5111967;28;20234;-67
2021/03/03 04:42:04;;;;;;;126.93;51.92;;;2.30;99.90;;;;;;5103337;28;20053;-67
2021/03/03 04:44:31;;;;;;;122.30;52.63;;;2.20;99.90;;;;;;5107365;28;20063;-67
2021/03/03 04:46:57;;;;;;;124.67;50.93;;;2.20;99.90;;;;;;5109332;28;20043;-67
2021/03/03 04:49:22;;;;;;;116.55;51.08;;;2.20;99.90;;;;;;5111597;28;20745;-67
2021/03/03 04:51:48;;;;;;;121.90;54.03;;;2.20;99.90;;;;;;5126634;28;20051;-68
2021/03/03 04:54:14;;;;;;;118.72;52.78;;;2.40;99.90;;;;;;5125714;28;20095;-67
2021/03/03 04:56:40;;;;;;;109.45;48.38;;;2.40;99.90;;;;;;5107093;28;20048;-66
2021/03/03 04:59:05;;;;;;;117.95;47.45;;;2.30;99.90;;;;;;5106918;28;20058;-65
2021/03/03 05:01:32;;;;;;;104.55;45.38;;;2.20;99.90;;;;;;5113425;28;20366;-67
2021/03/03 05:03:59;;;;;;;118.80;50.42;;;2.20;99.90;;;;;;5113756;28;20044;-67
2021/03/03 05:06:25;;;;;;;110.03;51.22;;;2.20;99.90;;;;;;5120383;28;20605;-66
2021/03/03 05:08:50;;;;;;;111.65;49.88;;;2.30;99.90;;;;;;5113599;28;20056;-67
2021/03/03 05:11:16;;;;;;;110.38;51.30;;;2.20;99.90;;;;;;5106841;28;20706;-67
2021/03/03 05:13:42;;;;;;;92.15;45.60;;;2.40;99.90;;;;;;5106922;28;20044;-67
2021/03/03 05:16:08;;;;;;;92.00;42.58;;;2.30;99.90;;;;;;5107167;28;20048;-67
2021/03/03 05:18:33;;;;;;;92.28;44.95;;;2.30;99.90;;;;;;5119082;28;20415;-67
2021/03/03 05:20:59;;;;;;;110.43;50.53;;;2.30;99.90;;;;;;5106603;28;20044;-67
2021/03/03 05:23:29;;;;;;;96.15;42.97;;;2.30;99.90;;;;;;5111156;28;20051;-67
2021/03/03 05:25:55;;;;;;;102.97;43.63;;;2.30;99.90;;;;;;5114795;28;20052;-67
2021/03/03 05:28:21;;;;;;;97.20;40.72;;;2.30;99.90;;;;;;5109771;28;20058;-67
2021/03/03 05:30:47;;;;;;;93.78;43.22;;;2.30;99.90;;;;;;5126345;28;20067;-67
2021/03/03 05:33:25;;;;;;;96.47;42.78;;;2.30;99.90;;;;;;5112395;28;20039;-67
2021/03/03 05:35:51;;;;;;;96.23;45.40;;;2.20;99.90;;;;;;5116357;28;20152;-67
2021/03/03 05:38:17;;;;;;;104.10;48.70;;;2.20;99.90;;;;;;5119960;28;20040;-66
2021/03/03 05:40:47;;;;;;;108.60;47.05;;;2.20;99.90;;;;;;5121285;28;20036;-66
2021/03/03 05:43:14;;;;;;;96.13;44.25;;;2.20;99.90;;;;;;5117180;28;20064;-66
2021/03/03 05:45:44;;;;;;;111.07;47.83;;;2.10;99.90;;;;;;5106485;28;20488;-67
2021/03/03 05:48:21;;;;;;;117.97;48.10;;;2.00;99.90;;;;;;5105514;28;20040;-67
2021/03/03 05:50:52;;;;;;;116.90;50.70;;;2.00;99.90;;;;;;5107998;28;20101;-67
2021/03/03 05:53:19;;;;;;;114.47;49.40;;;2.00;99.90;;;;;;5117403;28;20515;-67
2021/03/03 05:55:45;;;;;;;112.05;50.28;;;2.00;99.90;;;;;;5109720;28;20059;-67
2021/03/03 05:58:12;;;;;;;111.07;50.65;;;1.90;99.90;;;;;;5107343;28;20052;-67
2021/03/03 06:00:39;;;;;;;105.78;49.90;;;2.00;99.90;;;;;;5106392;28;20047;-67
2021/03/03 06:03:05;;;;;;;110.25;51.20;;;2.10;99.90;;;;;;5113096;28;20063;-67
2021/03/03 06:05:34;;;;;;;106.50;49.00;;;2.10;99.90;;;;;;5116079;28;20130;-68
2021/03/03 06:08:00;;;;;;;105.72;48.20;;;2.10;99.90;;;;;;5121899;28;20130;-67
2021/03/03 06:10:30;;;;;;;90.63;44.75;;;2.10;99.90;;;;;;5106088;28;20404;-67
2021/03/03 06:12:56;;;;;;;103.88;46.65;;;2.10;99.90;;;;;;5105619;28;20051;-67
2021/03/03 06:15:22;;;;;;;99.60;48.70;;;2.10;99.90;;;;;;5105375;28;20115;-67
2021/03/03 06:17:48;;;;;;;91.28;47.20;;;2.10;99.90;;;;;;5105260;28;20070;-67
2021/03/03 06:20:14;;;;;;;84.80;45.47;;;2.20;99.90;;;;;;5110058;28;20055;-67
2021/03/03 06:22:39;;;;;;;96.60;46.08;;;2.30;99.90;;;;;;5105888;28;20086;-67
2021/03/03 06:25:20;;;;;;;97.47;47.75;;;2.30;99.90;;;;;;5105753;28;20404;-67
2021/03/03 06:27:46;;;;;;;81.40;42.90;;;2.50;99.90;;;;;;5105387;28;20048;-67
2021/03/03 06:30:17;;;;;;;80.85;43.05;;;2.60;99.90;;;;;;5107766;28;20043;-67
2021/03/03 06:32:52;;;;;;;61.63;35.40;;;2.90;99.90;;;;;;5106861;28;20046;-67
2021/03/03 06:35:20;;;;;;;63.70;35.22;;;3.00;99.90;;;;;;5124511;28;20070;-67
2021/03/03 06:37:55;;;;;;;66.70;37.42;;;2.90;99.90;;;;;;5108161;28;20040;-67
2021/03/03 06:40:22;;;;;;;69.97;35.80;;;2.90;99.90;;;;;;5105777;28;20096;-67
2021/03/03 06:42:48;;;;;;;71.13;37.40;;;3.10;99.90;;;;;;5107813;28;20526;-67
2021/03/03 06:45:29;;;;;;;70.68;36.70;;;3.00;99.90;;;;;;5117609;28;20047;-67
2021/03/03 06:47:55;;;;;;;60.08;35.90;;;3.00;99.90;;;;;;5118854;28;20043;-66
2021/03/03 06:50:31;;;;;;;61.00;35.35;;;3.10;99.90;;;;;;5105535;28;20103;-67
2021/03/03 06:52:56;;;;;;;66.80;36.63;;;3.20;99.90;;;;;;5107834;28;20066;-66
2021/03/03 06:55:22;;;;;;;67.50;35.65;;;3.20;99.90;;;;;;5104826;28;20106;-66
2021/03/03 06:57:48;;;;;;;59.78;34.95;;;3.30;99.90;;;;;;5108225;28;20035;-66
2021/03/03 07:00:42;;;;;;;59.30;35.50;;;3.30;99.90;;;;;;5110547;28;20052;-69
2021/03/03 07:03:27;;;;;;;63.47;36.10;;;3.40;99.90;;;;;;5114767;28;21363;-67
2021/03/03 07:05:53;;;;;;;58.65;33.80;;;3.50;99.90;;;;;;5108225;28;20048;-67
2021/03/03 07:08:19;;;;;;;57.47;33.55;;;3.70;99.90;;;;;;5117788;28;20065;-66
2021/03/03 07:10:45;;;;;;;59.30;33.83;;;3.70;99.90;;;;;;5117506;28;20052;-66
2021/03/03 07:13:11;;;;;;;57.00;34.85;;;3.70;99.90;;;;;;5112907;28;20089;-67
2021/03/03 07:15:37;;;;;;;61.55;33.28;;;3.80;99.90;;;;;;5123693;28;20051;-67
2021/03/03 07:18:03;;;;;;;61.63;32.28;;;3.80;99.90;;;;;;5092172;28;20078;-66
2021/03/03 07:20:29;;;;;;;53.88;30.05;;;3.90;99.90;;;;;;5104352;28;20647;-66
2021/03/03 07:22:57;;;;;;;54.17;31.48;;;3.90;99.90;;;;;;5104507;28;20059;-66
2021/03/03 07:25:23;;;;;;;55.30;31.45;;;4.00;99.90;;;;;;5119430;28;20126;-66
2021/03/03 07:27:50;;;;;;;51.65;30.15;;;3.90;99.90;;;;;;5113396;28;20044;-66
2021/03/03 07:30:18;;;;;;;59.63;33.57;;;3.90;99.90;;;;;;5109141;28;20116;-66
2021/03/03 07:32:44;;;;;;;56.97;31.77;;;3.90;99.90;;;;;;5113189;28;20146;-66
2021/03/03 07:35:11;;;;;;;58.05;30.80;;;4.00;99.90;;;;;;5108554;28;20044;-66
2021/03/03 07:37:54;;;;;;;58.10;31.90;;;4.00;99.90;;;;;;5112388;28;20043;-67
2021/03/03 07:40:28;;;;;;;53.15;29.98;;;4.10;99.90;;;;;;5110750;28;20123;-66
2021/03/03 07:42:56;;;;;;;55.30;32.47;;;4.20;99.90;;;;;;5103785;28;20044;-67
2021/03/03 07:45:34;;;;;;;54.20;31.13;;;4.20;99.90;;;;;;5112055;28;20047;-66
2021/03/03 07:48:01;;;;;;;55.50;30.73;;;4.40;99.90;;;;;;5103743;28;20113;-67
2021/03/03 07:50:27;;;;;;;53.00;31.85;;;4.30;99.90;;;;;;5104274;28;20048;-67
2021/03/03 07:52:57;;;;;;;59.90;32.28;;;4.50;99.90;;;;;;5120349;28;20066;-67
2021/03/03 07:55:24;;;;;;;54.40;31.88;;;4.50;99.90;;;;;;5116552;28;20044;-67
2021/03/03 07:57:53;;;;;;;54.75;32.63;;;4.60;99.90;;;;;;5114793;28;20035;-68
2021/03/03 08:00:24;;;;;;;59.28;31.25;;;4.60;99.90;;;;;;5109151;28;20048;-66
2021/03/03 08:02:52;;;;;;;56.25;30.23;;;4.70;99.90;;;;;;5116469;28;20089;-66
2021/03/03 08:05:36;;;;;;;47.47;29.95;;;4.70;99.90;;;;;;5123148;28;20051;-66
2021/03/03 08:08:25;;;;;;;49.88;29.92;;;4.80;99.90;;;;;;5109464;28;20043;-66
2021/03/03 08:10:58;;;;;;;55.00;29.75;;;4.80;99.90;;;;;;5114737;28;20480;-67
2021/03/03 08:13:30;;;;;;;59.97;32.10;;;5.00;99.90;;;;;;5109655;28;20188;-66
2021/03/03 08:16:00;;;;;;;51.85;29.45;;;5.10;99.90;;;;;;5114933;28;20044;-67
2021/03/03 08:18:31;;;;;;;55.13;31.92;;;5.20;99.90;;;;;;5120967;28;20039;-66
2021/03/03 08:20:58;;;;;;;55.00;30.52;;;5.20;99.90;;;;;;5119542;28;20518;-66
2021/03/03 08:23:37;;;;;;;51.50;30.48;;;5.30;99.90;;;;;;5107517;28;20072;-67
2021/03/03 08:26:16;;;;;;;50.17;29.65;;;5.30;99.90;;;;;;5107750;28;20062;-66
2021/03/03 08:28:45;;;;;;;53.50;29.50;;;5.30;99.90;;;;;;5107776;28;20046;-66
2021/03/03 08:31:14;;;;;;;50.03;30.30;;;5.40;99.90;;;;;;5107438;28;20051;-65
2021/03/03 08:33:48;;;;;;;53.60;28.65;;;5.50;99.90;;;;;;5107867;28;20085;-66
2021/03/03 08:36:17;;;;;;;52.20;29.27;;;5.50;99.90;;;;;;5111103;28;20127;-66
2021/03/03 08:38:52;;;;;;;52.72;30.60;;;5.50;99.90;;;;;;5117981;28;20047;-66
2021/03/03 08:41:17;;;;;;;53.90;28.75;;;5.50;99.90;;;;;;5118567;28;20044;-66
2021/03/03 08:43:47;;;;;;;58.10;32.42;;;5.50;99.90;;;;;;5113852;28;20139;-66
2021/03/03 08:46:20;;;;;;;58.25;30.30;;;5.50;99.90;;;;;;5120127;28;20048;-68
2021/03/03 08:48:46;;;;;;;53.67;31.27;;;5.50;99.90;;;;;;5112072;28;20074;-66
2021/03/03 08:51:25;;;;;;;46.10;28.50;;;5.50;99.90;;;;;;5107340;28;20052;-66
2021/03/03 08:53:55;;;;;;;55.13;30.90;;;5.50;99.90;;;;;;5112888;28;20040;-66
2021/03/03 08:56:41;;;;;;;50.72;30.20;;;5.50;99.90;;;;;;5125521;28;20044;-66
2021/03/03 08:59:26;;;;;;;60.60;31.25;;;5.50;99.90;;;;;;5125993;28;20434;-65
2021/03/03 09:02:00;;;;;;;52.20;29.65;;;5.50;99.90;;;;;;5116040;28;20044;-66
2021/03/03 09:04:49;;;;;;;48.83;30.15;;;5.60;99.90;;;;;;5107096;28;20056;-68
2021/03/03 09:07:15;;;;;;;55.22;33.63;;;5.60;99.90;;;;;;5119627;28;20039;-67
2021/03/03 09:09:49;;;;;;;48.35;30.67;;;5.70;99.90;;;;;;5114940;28;20087;-67
2021/03/03 09:12:17;;;;;;;53.08;31.40;;;5.70;99.90;;;;;;5118368;28;20067;-67
2021/03/03 09:14:43;;;;;;;;;;;5.80;99.90;;;;;;5123425;28;20066;-67
2021/03/03 09:17:18;;;;;;;54.35;30.33;;;5.90;99.90;;;;;;5106899;28;19927;-67
2021/03/03 09:19:44;;;;;;;47.90;30.58;;;6.00;99.90;;;;;;5106942;28;20051;-67
2021/03/03 09:22:26;;;;;;;52.63;30.38;;;6.20;99.90;;;;;;5106903;28;20044;-67
2021/03/03 09:25:03;;;;;;;52.83;29.88;;;6.30;99.90;;;;;;5111954;28;20055;-67
2021/03/03 09:27:29;;;;;;;50.63;28.52;;;6.50;99.90;;;;;;5116668;28;20058;-67
2021/03/03 09:29:56;;;;;;;44.20;26.60;;;6.60;99.90;;;;;;5110134;28;20074;-65
2021/03/03 09:32:23;;;;;;;46.00;29.30;;;6.70;99.90;;;;;;5105819;28;20044;-67
2021/03/03 09:34:50;;;;;;;47.70;29.75;;;6.80;99.90;;;;;;5106681;28;20040;-67
2021/03/03 09:37:17;;;;;;;48.42;29.35;;;7.00;99.90;;;;;;5117717;28;20423;-67
2021/03/03 09:39:57;;;;;;;44.33;28.73;;;7.20;99.90;;;;;;5106509;28;20044;-67
2021/03/03 09:42:24;;;;;;;46.85;28.52;;;7.30;99.90;;;;;;5108397;28;20060;-67
2021/03/03 09:44:56;;;;;;;41.17;25.77;;;7.30;99.90;;;;;;5125496;28;20050;-67
2021/03/03 09:47:38;;;;;;;44.70;29.77;;;7.20;99.90;;;;;;5109464;28;20048;-67
2021/03/03 09:50:12;;;;;;;49.33;30.65;;;7.10;99.90;;;;;;5106875;28;20090;-67
2021/03/03 09:52:47;;;;;;;45.33;27.83;;;7.20;99.90;;;;;;5113063;28;20051;-67
2021/03/03 09:55:15;;;;;;;47.47;30.90;;;7.20;99.90;;;;;;5106505;28;20622;-67
2021/03/03 09:57:47;;;;;;;;;;;7.40;99.90;;;;;;5115562;28;20070;-67
2021/03/03 10:00:16;;;;;;;49.05;31.20;;;7.30;99.90;;;;;;5116375;28;19931;-67
2021/03/03 10:02:55;;;;;;;48.50;30.60;;;7.30;99.90;;;;;;5105295;28;20059;-67
2021/03/03 10:05:23;;;;;;;60.63;32.50;;;7.20;99.90;;;;;;5106010;28;20070;-67
2021/03/03 10:07:49;;;;;;;;;;;7.00;99.90;;;;;;5114712;28;20051;-67
2021/03/03 10:10:18;;;;;;;48.70;30.00;;;6.90;99.90;;;;;;5117215;28;19920;-67
2021/03/03 10:12:43;;;;;;;48.25;28.63;;;6.80;99.90;;;;;;5105452;28;20048;-67
2021/03/03 10:15:15;;;;;;;59.63;35.20;;;6.70;99.90;;;;;;5105688;28;20641;-67
2021/03/03 10:17:48;;;;;;;56.47;32.83;;;6.70;99.90;;;;;;5111299;28;20044;-67
2021/03/03 10:20:51;;;;;;;57.88;33.53;;;6.60;99.90;;;;;;5111992;28;20057;-67
2021/03/03 10:23:22;;;;;;;55.67;32.53;;;6.50;99.90;;;;;;5022333;28;20124;-67
2021/03/03 10:25:51;;;;;;;54.50;31.25;;;6.40;99.90;;;;;;5022689;28;20117;-67
2021/03/03 10:28:26;;;;;;;49.83;32.35;;;6.20;99.90;;;;;;5022045;28;20113;-67
2021/03/03 10:30:59;;;;;;;49.75;29.48;;;6.30;99.90;;;;;;5022237;28;20068;-67
2021/03/03 10:33:29;;;;;;;53.50;32.05;;;6.10;99.90;;;;;;5021482;28;20217;-67
2021/03/03 10:35:58;;;;;;;56.42;31.33;;;6.00;99.90;;;;;;5022431;28;20062;-67
2021/03/03 10:38:25;;;;;;;46.95;29.85;;;6.00;99.90;;;;;;5021926;28;20065;-67
2021/03/03 10:40:53;;;;;;;44.40;27.55;;;5.90;99.90;;;;;;5021893;28;20065;-67
2021/03/03 10:43:20;;;;;;;;;;;5.80;99.90;;;;;;5022232;28;20090;-67
2021/03/03 10:45:47;;;;;;;41.00;24.85;;;5.90;99.90;;;;;;5021994;28;19921;-67
2021/03/03 10:48:30;;;;;;;;;;;5.80;99.90;;;;;;5021956;28;20050;-67
2021/03/03 10:50:59;;;;;;;39.05;25.33;;;5.70;99.90;;;;;;5022409;28;20375;-67
2021/03/03 10:53:42;;;;;;;47.72;28.40;;;5.70;99.90;;;;;;5022041;28;20054;-67
2021/03/03 10:56:18;;;;;;;63.70;27.05;;;5.70;99.90;;;;;;5026760;28;20054;-67
2021/03/03 10:58:44;;;;;;;55.60;24.33;;;5.40;99.90;;;;;;5113415;28;20067;-67
2021/03/03 11:01:10;;;;;;;55.40;27.25;;;5.20;99.90;;;;;;5107973;28;20057;-67
2021/03/03 11:03:56;;;;;;;69.55;25.10;;;5.10;99.90;;;;;;5108284;28;20047;-66
2021/03/03 11:06:27;;;;;;;55.17;22.27;;;4.90;99.90;;;;;;5116343;28;20435;-67
2021/03/03 11:08:52;;;;;;;50.58;26.95;;;4.80;99.90;;;;;;5114459;28;20069;-67
2021/03/03 11:11:18;;;;;;;44.50;25.52;;;4.80;99.90;;;;;;5111500;28;20044;-67
2021/03/03 11:13:44;;;;;;;48.70;26.02;;;4.80;99.90;;;;;;5104709;28;20044;-67
2021/03/03 11:16:10;;;;;;;58.55;25.80;;;4.80;99.90;;;;;;5104194;28;20086;-67
2021/03/03 11:18:35;;;;;;;55.33;25.15;;;4.80;99.90;;;;;;5104109;28;20051;-67
2021/03/03 11:21:01;;;;;;;46.47;25.10;;;4.90;99.90;;;;;;5111857;28;20548;-67
2021/03/03 11:23:29;;;;;;;44.75;25.08;;;4.80;99.90;;;;;;5104314;28;20161;-66
2021/03/03 11:25:56;;;;;;;28.75;16.10;;;5.00;99.90;;;;;;5107310;28;20040;-67
2021/03/03 11:28:23;;;;;;;52.85;21.95;;;5.00;99.90;;;;;;5107024;28;20048;-67
2021/03/03 11:30:49;;;;;;;43.65;23.05;;;5.00;99.90;;;;;;5111134;28;20047;-67
2021/03/03 11:33:14;;;;;;;41.72;24.23;;;5.00;99.90;;;;;;5104134;28;20070;-67
2021/03/03 11:35:40;;;;;;;41.95;23.52;;;5.10;99.90;;;;;;5104362;28;20048;-67
2021/03/03 11:38:06;;;;;;;47.17;24.13;;;5.10;99.90;;;;;;5117596;28;20051;-67
2021/03/03 11:40:32;;;;;;;39.13;24.30;;;5.10;99.90;;;;;;5123344;28;20069;-67
2021/03/03 11:42:57;;;;;;;41.50;23.90;;;5.00;99.90;;;;;;5112510;28;20050;-67
2021/03/03 11:45:23;;;;;;;57.47;25.13;;;5.10;99.90;;;;;;5106178;28;20048;-67
2021/03/03 11:47:49;;;;;;;56.42;24.92;;;5.00;99.90;;;;;;5116554;28;20531;-67
2021/03/03 11:50:17;;;;;;;43.05;25.38;;;4.90;99.90;;;;;;5119366;28;20130;-67
2021/03/03 11:52:43;;;;;;;48.88;27.58;;;5.00;99.90;;;;;;5108834;28;20044;-67
2021/03/03 11:55:09;;;;;;;50.20;28.40;;;5.10;99.90;;;;;;5109597;28;20522;-67
2021/03/03 11:57:35;;;;;;;52.58;27.83;;;5.00;99.90;;;;;;5107944;28;20048;-67
2021/03/03 12:00:04;;;;;;;48.85;27.98;;;5.10;99.90;;;;;;5110931;28;20050;-67
2021/03/03 12:02:30;;;;;;;42.40;22.23;;;5.30;99.90;;;;;;5102955;28;20078;-67
2021/03/03 12:04:55;;;;;;;59.05;21.50;;;5.20;99.90;;;;;;5103747;28;20135;-68
2021/03/03 12:07:21;;;;;;;48.47;23.42;;;5.00;99.90;;;;;;5105462;28;20096;-67
2021/03/03 12:09:47;;;;;;;61.92;29.33;;;4.90;99.90;;;;;;5108105;28;20044;-67
2021/03/03 12:12:12;;;;;;;65.30;30.67;;;4.90;99.90;;;;;;5103896;28;20499;-67
2021/03/03 12:14:38;;;;;;;47.42;27.23;;;5.00;99.90;;;;;;5103546;28;20098;-67
2021/03/03 12:17:04;;;;;;;48.08;26.77;;;5.20;99.90;;;;;;5104483;28;20036;-67
2021/03/03 12:19:30;;;;;;;49.05;28.00;;;5.30;99.90;;;;;;5108046;28;20096;-67
2021/03/03 12:21:56;;;;;;;44.15;27.33;;;5.40;99.90;;;;;;5108884;28;20048;-66
2021/03/03 12:24:21;;;;;;;46.70;28.05;;;5.50;99.90;;;;;;5114084;28;20040;-67
2021/03/03 12:26:47;;;;;;;50.03;29.55;;;5.60;99.90;;;;;;5106082;28;20123;-66
2021/03/03 12:29:13;;;;;;;45.70;27.50;;;5.50;99.90;;;;;;5103281;28;20123;-66
2021/03/03 12:31:39;;;;;;;45.92;28.05;;;5.60;99.90;;;;;;5103134;28;20044;-66
2021/03/03 12:34:04;;;;;;;47.35;27.60;;;5.60;99.90;;;;;;5103852;28;20048;-66
2021/03/03 12:36:30;;;;;;;50.78;28.15;;;5.60;99.90;;;;;;5117807;28;20044;-66
2021/03/03 12:38:56;;;;;;;44.60;26.85;;;5.60;99.90;;;;;;5119327;28;20061;-66
2021/03/03 12:41:22;;;;;;;47.38;29.55;;;5.50;99.90;;;;;;5111903;28;20503;-67
2021/03/03 12:43:47;;;;;;;47.97;29.58;;;5.50;99.90;;;;;;5105706;28;20112;-66